Whitewater Creek, Colorado (Grand Mesa) Weather observations

Data are for observation ending at time listed.
 Day   Time    Ave.   Ave.  Ave.  Vector   Max.    Total    Solar   Ave.  
  of    of     Air    Rel.  Wind   Wind    Wind   Precip.   Rad.    Soil  
Year   Day     Temp.  Hum.  Speed  Dir.    Gust                     Temp. 
2014   (MST)    F      %     mph   deg.    mph      in.     W/m2     F   
------------------------------------------------------------------------------
 106   20:40   22.7    54    2.2   290      2.2    99999.00   99999    99999.0
 106   20:50   22.5    54    2.2   290      2.2    99999.00   99999    99999.0
 106   21:00   23.1    54    2.2   290      2.2    99999.00   99999    99999.0
 106   21:10   22.7    55    2.2   290      2.2    99999.00   99999    99999.0
 106   21:20   22.1    57    2.2   290      2.2    99999.00   99999    99999.0
 106   21:30   23.2    54    2.2   290      2.2    99999.00   99999    99999.0
 106   21:40   22.3    55    2.2   290      2.2    99999.00   99999    99999.0
 106   21:50   22.3    57    2.2   290      2.2    99999.00   99999    99999.0
 106   22:00   21.8    57    2.2   290      2.2    99999.00   99999    99999.0
 106   22:10   22.4    56    2.2   290      2.2    99999.00   99999    99999.0
 106   22:20   22.9    54    2.2   290      2.2    99999.00   99999    99999.0
 106   22:30   22.7    53    2.2   290      2.2    99999.00   99999    99999.0
 106   22:40   22.7    54    2.2   290      2.2    99999.00   99999    99999.0
 106   22:50   22.2    56    2.2   290      2.2    99999.00   99999    99999.0
 106   23:00   21.4    58    2.2   290      2.2    99999.00   99999    99999.0
 106   23:10   19.8    60    2.2   290      2.2    99999.00   99999    99999.0
 106   23:20   19.6    62    2.2   290      2.2    99999.00   99999    99999.0
 106   23:30   21.0    63    2.2   290      2.2    99999.00   99999    99999.0
 106   23:40   21.0    61    2.2   290      2.2    99999.00   99999    99999.0
 106   23:50   21.4    61    2.2   290      2.2    99999.00   99999    99999.0
 107    0:00   21.3    62    2.2   290      2.2    99999.00   99999    99999.0
 107    0:10   21.4    61    2.2   290      2.2    99999.00   99999    99999.0
 107    0:20   21.7    60    2.2   290      2.2    99999.00   99999    99999.0
 107    0:30   20.5    63    2.2   290      2.2    99999.00   99999    99999.0
 107    0:40   20.8    62    2.2   290      2.2    99999.00   99999    99999.0
 107    0:50   20.7    63    2.2   290      2.2    99999.00   99999    99999.0
 107    1:00   20.0    66    2.2   290      2.2    99999.00   99999    99999.0
 107    1:10   20.2    65    2.2   290      2.2    99999.00   99999    99999.0
 107    1:20   20.1    66    2.2   290      2.2    99999.00   99999    99999.0
 107    1:30   20.4    66    2.2   290      2.2    99999.00   99999    99999.0
 107    1:40   20.3    66    2.2   290      2.2    99999.00   99999    99999.0
 107    1:50   20.2    65    2.2   290      2.2    99999.00   99999    99999.0
 107    2:00   19.8    67    2.2   290      2.2    99999.00   99999    99999.0
 107    2:10   20.1    66    2.2   290      2.2    99999.00   99999    99999.0
 107    2:20   19.8    68    2.2   290      2.2    99999.00   99999    99999.0
 107    2:30   19.2    69    2.2   290      2.2    99999.00   99999    99999.0
 107    2:40   19.8    69    2.2   290      2.2    99999.00   99999    99999.0
 107    2:50   19.0    69    2.2   290      2.2    99999.00   99999    99999.0
 107    3:00   19.3    70    2.2   290      2.2    99999.00   99999    99999.0
 107    3:10   20.0    68    2.2   290      2.2    99999.00   99999    99999.0
 107    3:20   19.8    68    2.2   290      2.2    99999.00   99999    99999.0
 107    3:30   20.1    66    2.2   290      2.2    99999.00   99999    99999.0
 107    3:40   19.2    68    2.2   290      2.2    99999.00   99999    99999.0
 107    3:50   19.1    69    2.2   290      2.2    99999.00   99999    99999.0
 107    4:00   19.1    68    2.2   290      2.2    99999.00   99999    99999.0
 107    4:10   18.6    70    2.2   290      2.2    99999.00   99999    99999.0
 107    4:20   19.3    68    2.2   290      2.2    99999.00   99999    99999.0
 107    4:30   19.1    68    2.2   290      2.2    99999.00   99999    99999.0
 107    4:40   19.3    66    2.2   290      2.2    99999.00   99999    99999.0
 107    4:50   18.8    68    2.2   290      2.2    99999.00   99999    99999.0
 107    5:00   19.2    67    2.2   290      2.2    99999.00   99999    99999.0
 107    5:10   20.3    63    2.2   290      2.2    99999.00   99999    99999.0
 107    5:20   18.9    67    2.2   290      2.2    99999.00   99999    99999.0
 107    5:30   19.3    64    2.2   278      2.2    99999.00   99999    99999.0
 107    5:40   18.7    66    2.2   275      2.2    99999.00   99999    99999.0
 107    5:50   18.7    66    2.2   272      2.2    99999.00   99999    99999.0
 107    6:00   20.9    62    2.2   262      2.2    99999.00   99999    99999.0
 107    6:10   22.3    60    2.2   232      3.5    99999.00   99999    99999.0
 107    6:20   22.7    59    2.2   220      2.2    99999.00   99999    99999.0
 107    6:30   22.5    59    2.2   215      2.2    99999.00   99999    99999.0
 107    6:40   24.2    55    3.3   229      4.8    99999.00   99999    99999.0
 107    6:50   25.4    52    3.7   218      6.1    99999.00   99999    99999.0
 107    7:00   26.8    49    4.2   215      6.1    99999.00   99999    99999.0
 107    7:10   27.6    49    5.0   208      7.4    99999.00   99999    99999.0
 107    7:20   28.7    46    4.7   208      6.1    99999.00   99999    99999.0
 107    7:30   28.9    46    5.0   213      7.4    99999.00   99999    99999.0
 107    7:40   28.3    47    4.9   230      7.4    99999.00   99999    99999.0
 107    7:50   29.1    47    5.0   223      6.1    99999.00   99999    99999.0
 107    8:00   29.9    47    6.2   216     11.2    99999.00   99999    99999.0
 107    8:10   30.4    47    7.7   207     11.2    99999.00   99999    99999.0
 107    8:20   32.1    45    9.8   202     12.5    99999.00   99999    99999.0
 107    8:30   32.8    46    9.7   205     15.0    99999.00   99999    99999.0
 107    8:40   33.2    46   11.1   199     15.0    99999.00   99999    99999.0
 107    8:50   33.6    46   10.5   201     12.5    99999.00   99999    99999.0
 107    9:00   33.4    48   11.9   210     17.6    99999.00   99999    99999.0
 107    9:10   33.5    49   11.2   214     15.0    99999.00   99999    99999.0
 107    9:20   33.7    50    9.2   224     12.5    99999.00   99999    99999.0
 107    9:30   34.1    49    9.4   227     13.8    99999.00   99999    99999.0
 107    9:40   34.0    48    9.4   232     12.5    99999.00   99999    99999.0
 107    9:50   34.2    47    9.1   232     13.8    99999.00   99999    99999.0
 107   10:00   34.6    47    9.8   236     12.5    99999.00   99999    99999.0
 107   10:10   35.1    45    8.0   230     11.2    99999.00   99999    99999.0
 107   10:20   35.8    43    8.1   220     13.8    99999.00   99999    99999.0
 107   10:30   36.0    43    8.6   225     13.8    99999.00   99999    99999.0
 107   10:40   36.4    40   10.6   205     16.3    99999.00   99999    99999.0
 107   10:50   36.7    42    8.6   220     12.5    99999.00   99999    99999.0
 107   11:00   36.9    42    9.8   211     13.8    99999.00   99999    99999.0
 107   11:10   36.8    44    9.6   219     13.8    99999.00   99999    99999.0
 107   11:20   36.4    43   12.3   210     16.3    99999.00   99999    99999.0
 107   11:30   36.7    44   11.9   215     16.3    99999.00   99999    99999.0
 107   11:40   36.9    43   12.9   208     17.6    99999.00   99999    99999.0
 107   11:50   36.9    44   13.5   208     22.7    99999.00   99999    99999.0
 107   12:00   37.1    43   13.5   210     18.9    99999.00   99999    99999.0
 107   12:10   37.3    44   12.9   215     17.6    99999.00   99999    99999.0
 107   12:20   37.3    43   12.3   221     16.3    99999.00   99999    99999.0
 107   12:30   37.7    42   13.2   212     20.2    99999.00   99999    99999.0
 107   12:40   37.8    43   13.2   216     18.9    99999.00   99999    99999.0
 107   12:50   38.1    41   11.2   223     17.6    99999.00   99999    99999.0
 107   13:00   38.2    41    9.7   228     13.8    99999.00   99999    99999.0
 107   13:10   39.0    40   10.9   211     16.3    99999.00   99999    99999.0
 107   13:20   39.3    40    9.7   207     13.8    99999.00   99999    99999.0
 107   13:30   39.4    40    9.2   224     15.0    99999.00   99999    99999.0
 107   13:40   39.2    41    9.5   233     13.8    99999.00   99999    99999.0
 107   13:50   39.1    41   11.5   234     17.6    99999.00   99999    99999.0
 107   14:00   39.5    40    9.0   234     12.5    99999.00   99999    99999.0
 107   14:10   39.8    39   11.0   220     15.0    99999.00   99999    99999.0
 107   14:20   40.3    39   11.4   213     17.6    99999.00   99999    99999.0
 107   14:30   40.5    39   11.0   220     16.3    99999.00   99999    99999.0
 107   14:40   40.6    40   12.3   212     17.6    99999.00   99999    99999.0
 107   14:50   40.1    41   14.1   234     18.9    99999.00   99999    99999.0
 107   15:00   40.3    41   13.3   216     20.2    99999.00   99999    99999.0
 107   15:10   40.1    43   13.1   234     18.9    99999.00   99999    99999.0
 107   15:20   40.5    41   14.0   220     24.0    99999.00   99999    99999.0
 107   15:30   40.5    41   14.0   232     20.2    99999.00   99999    99999.0
 107   15:40   40.8    40   12.3   226     17.6    99999.00   99999    99999.0
 107   15:50   40.6    42   13.6   225     18.9    99999.00   99999    99999.0
 107   16:00   40.9    40   15.3   223     21.4    99999.00   99999    99999.0
 107   16:10   40.8    41   14.1   226     20.2    99999.00   99999    99999.0
 107   16:20   40.9    41   12.8   216     20.2    99999.00   99999    99999.0
 107   16:30   40.8    43   11.3   235     17.6    99999.00   99999    99999.0
 107   16:40   41.1    41   10.9   233     16.3    99999.00   99999    99999.0
 107   16:50   41.2    41   12.3   217     17.6    99999.00   99999    99999.0
 107   17:00   41.1    40   12.6   229     17.6    99999.00   99999    99999.0
 107   17:10   41.7    38   14.8   209     21.4    99999.00   99999    99999.0
 107   17:20   41.2    40   13.7   213     17.6    99999.00   99999    99999.0
 107   17:30   41.1    41   12.3   214     16.3    99999.00   99999    99999.0
 107   17:40   40.9    42   12.2   214     16.3    99999.00   99999    99999.0
 107   17:50   40.9    42   12.9   212     16.3    99999.00   99999    99999.0
 107   18:00   40.4    43   14.8   210     20.2    99999.00   99999    99999.0
 107   18:10   40.2    44   12.6   216     17.6    99999.00   99999    99999.0
 107   18:20   39.7    45   13.4   211     20.2    99999.00   99999    99999.0
 107   18:30   39.1    46   14.1   209     18.9    99999.00   99999    99999.0
 107   18:40   39.0    46   13.7   204     17.6    99999.00   99999    99999.0
 107   18:50   39.4    44   14.4   204     17.6    99999.00   99999    99999.0
 107   19:00   39.0    44   14.3   205     17.6    99999.00   99999    99999.0
 107   19:10   38.7    44   13.1   202     16.3    99999.00   99999    99999.0
 107   19:20   38.8    44   14.1   199     16.3    99999.00   99999    99999.0
 107   19:30   38.9    42   14.4   198     17.6    99999.00   99999    99999.0
 107   19:40   38.9    42   14.2   199     18.9    99999.00   99999    99999.0
 107   19:50   38.6    43   14.2   202     17.6    99999.00   99999    99999.0
 107   20:00   38.0    45   15.0   202     18.9    99999.00   99999    99999.0
 107   20:10   38.1    45   15.9   205     17.6    99999.00   99999    99999.0
 107   20:20   37.7    47   16.3   206     18.9    99999.00   99999    99999.0
 107   20:30   37.2    48   17.0   204     20.2    99999.00   99999    99999.0

Return to Whitewater Creek, Colorado graphs page.


Western Regional Climate Center,wrcc@dri.edu